createdAt,value
2023-01-26T00:01:13.630Z,19.52
2023-01-26T00:03:41.045Z,18.27
2023-01-26T00:06:09.534Z,19.10
2023-01-26T00:08:37.631Z,18.73
2023-01-26T00:11:08.461Z,20.15
2023-01-26T00:13:36.067Z,17.20
2023-01-26T00:16:03.851Z,17.92
2023-01-26T00:18:31.752Z,17.98
2023-01-26T00:20:59.613Z,17.43
2023-01-26T00:23:26.952Z,17.15
2023-01-26T00:25:54.188Z,18.17
2023-01-26T00:28:21.359Z,16.85
2023-01-26T00:30:48.552Z,18.55
2023-01-26T00:33:16.152Z,16.90
2023-01-26T00:35:46.689Z,14.50
2023-01-26T00:38:14.415Z,15.30
2023-01-26T00:40:42.421Z,15.73
2023-01-26T00:43:09.547Z,15.68
2023-01-26T00:45:36.706Z,14.50
2023-01-26T00:48:03.834Z,16.38
2023-01-26T00:50:31.308Z,16.88
2023-01-26T00:52:58.470Z,16.02
2023-01-26T00:55:32.113Z,16.52
2023-01-26T00:58:02.690Z,16.20
2023-01-26T01:00:30.148Z,15.68
2023-01-26T01:02:57.622Z,14.15
2023-01-26T01:05:25.524Z,13.80
2023-01-26T01:07:52.783Z,14.32
2023-01-26T01:10:19.999Z,13.10
2023-01-26T01:12:47.152Z,14.35
2023-01-26T01:15:14.433Z,13.45
2023-01-26T01:17:41.752Z,13.20
2023-01-26T01:20:11.548Z,14.95
2023-01-26T01:22:39.134Z,14.10
2023-01-26T01:25:06.414Z,13.55
2023-01-26T01:27:33.576Z,13.90
2023-01-26T01:30:00.786Z,14.70
2023-01-26T01:32:28.041Z,14.48
2023-01-26T01:34:55.248Z,14.90
2023-01-26T01:37:22.424Z,13.68
2023-01-26T01:39:49.950Z,13.68
2023-01-26T01:42:17.098Z,13.95
2023-01-26T01:44:44.322Z,13.77
2023-01-26T01:47:14.494Z,13.57
2023-01-26T01:49:49.792Z,13.57
2023-01-26T01:52:18.754Z,12.43
2023-01-26T01:54:49.289Z,13.88
2023-01-26T01:57:27.607Z,12.63
2023-01-26T01:59:57.489Z,13.00
2023-01-26T02:02:24.768Z,13.13
2023-01-26T02:04:52.303Z,13.75
2023-01-26T02:07:19.685Z,12.95
2023-01-26T02:10:05.401Z,15.45
2023-01-26T02:12:33.716Z,14.60
2023-01-26T02:15:01.926Z,14.27
2023-01-26T02:17:29.094Z,13.73
2023-01-26T02:20:04.601Z,13.55
2023-01-26T02:22:39.039Z,13.95
2023-01-26T02:25:09.323Z,14.00
2023-01-26T02:27:36.906Z,13.35
2023-01-26T02:30:04.758Z,14.25
2023-01-26T02:32:31.890Z,14.02
2023-01-26T02:34:59.044Z,14.15
2023-01-26T02:37:26.149Z,14.00
2023-01-26T02:40:00.370Z,13.23
2023-01-26T02:42:41.641Z,14.32
2023-01-26T02:45:09.383Z,14.65
2023-01-26T02:47:36.575Z,14.40
2023-01-26T02:50:03.730Z,13.50
2023-01-26T02:52:31.711Z,13.68
2023-01-26T02:55:17.577Z,13.98
2023-01-26T02:57:45.210Z,13.30
2023-01-26T03:00:14.987Z,13.70
2023-01-26T03:02:43.033Z,14.60
2023-01-26T03:05:10.270Z,13.90
2023-01-26T03:07:37.466Z,14.52
2023-01-26T03:10:05.439Z,15.38
2023-01-26T03:12:32.720Z,14.10
2023-01-26T03:15:18.732Z,14.57
2023-01-26T03:17:45.894Z,13.10
2023-01-26T03:20:31.951Z,13.98
2023-01-26T03:23:17.991Z,13.98
2023-01-26T03:26:04.054Z,13.23
2023-01-26T03:28:31.235Z,12.17
2023-01-26T03:30:58.671Z,13.90
2023-01-26T03:33:25.897Z,15.27
2023-01-26T03:35:54.454Z,13.68
2023-01-26T03:38:21.641Z,14.35
2023-01-26T03:41:07.721Z,13.87
2023-01-26T03:43:53.415Z,14.32
2023-01-26T03:46:39.268Z,12.90
2023-01-26T03:49:25.236Z,13.80
2023-01-26T03:52:11.357Z,12.40
2023-01-26T03:54:57.320Z,12.83
2023-01-26T03:57:24.508Z,12.13
2023-01-26T03:59:51.696Z,13.15
2023-01-26T04:02:37.841Z,12.13
2023-01-26T04:05:24.056Z,12.43
2023-01-26T04:08:09.899Z,11.20
2023-01-26T04:10:36.994Z,11.88
2023-01-26T04:13:22.747Z,12.15
2023-01-26T04:16:08.619Z,12.18
2023-01-26T04:18:54.633Z,11.98
2023-01-26T04:21:28.966Z,12.97
2023-01-26T04:23:57.618Z,11.98
2023-01-26T04:26:25.611Z,11.07
2023-01-26T04:28:53.005Z,12.55
2023-01-26T04:31:20.133Z,12.40
2023-01-26T04:33:47.272Z,12.07
2023-01-26T04:36:14.439Z,12.95
2023-01-26T04:38:41.583Z,11.77
2023-01-26T04:41:08.768Z,12.52
2023-01-26T04:43:35.905Z,12.10
2023-01-26T04:46:08.098Z,11.87
2023-01-26T04:48:35.689Z,11.13
2023-01-26T04:51:04.357Z,12.52
2023-01-26T04:53:32.826Z,12.38
2023-01-26T04:56:00.103Z,11.98
2023-01-26T04:58:27.383Z,12.63
2023-01-26T05:00:58.793Z,10.55
2023-01-26T05:03:26.571Z,13.07
2023-01-26T05:05:54.602Z,11.68
2023-01-26T05:08:22.549Z,12.05
2023-01-26T05:10:49.889Z,11.67
2023-01-26T05:13:17.009Z,12.60
2023-01-26T05:15:44.173Z,11.77
2023-01-26T05:18:11.838Z,11.07
2023-01-26T05:20:39.442Z,11.85
2023-01-26T05:23:06.731Z,11.93
2023-01-26T05:25:33.887Z,12.25
2023-01-26T05:28:01.028Z,12.40
2023-01-26T05:30:28.219Z,12.02
2023-01-26T05:32:55.383Z,13.02
2023-01-26T05:35:22.495Z,13.77
2023-01-26T05:37:49.569Z,11.75
2023-01-26T05:40:16.791Z,10.93
2023-01-26T05:42:44.296Z,11.98
2023-01-26T05:45:11.486Z,12.70
2023-01-26T05:47:38.677Z,12.80
2023-01-26T05:50:06.521Z,12.40
2023-01-26T05:52:33.734Z,12.88
2023-01-26T05:55:00.969Z,11.90
2023-01-26T05:57:28.239Z,12.38
2023-01-26T05:59:55.420Z,12.17
2023-01-26T06:02:22.634Z,12.00
2023-01-26T06:04:50.021Z,12.57
2023-01-26T06:07:18.187Z,12.77
2023-01-26T06:09:45.964Z,12.98
2023-01-26T06:12:18.019Z,13.00
2023-01-26T06:14:47.242Z,12.50
2023-01-26T06:17:15.554Z,13.05
2023-01-26T06:19:42.824Z,11.93
2023-01-26T06:22:10.832Z,12.88
2023-01-26T06:24:38.105Z,12.77
2023-01-26T06:27:07.304Z,13.05
2023-01-26T06:29:34.529Z,11.75
2023-01-26T06:32:01.700Z,13.18
2023-01-26T06:34:28.797Z,11.38
2023-01-26T06:36:56.417Z,11.23
2023-01-26T06:39:23.554Z,11.88
2023-01-26T06:41:50.734Z,12.57
2023-01-26T06:44:17.944Z,11.80
2023-01-26T06:46:45.015Z,11.68
2023-01-26T06:49:12.163Z,11.60
2023-01-26T06:51:42.266Z,11.43
2023-01-26T06:54:10.586Z,12.38
2023-01-26T06:56:37.671Z,12.73
2023-01-26T06:59:05.553Z,12.45
2023-01-26T07:01:37.244Z,11.57
2023-01-26T07:04:04.568Z,11.32
2023-01-26T07:06:31.687Z,11.10
2023-01-26T07:08:58.892Z,11.73
2023-01-26T07:11:26.082Z,11.70
2023-01-26T07:13:53.330Z,12.07
2023-01-26T07:16:20.524Z,11.10
2023-01-26T07:18:47.600Z,11.85
2023-01-26T07:21:15.748Z,13.30
2023-01-26T07:23:42.910Z,13.55
2023-01-26T07:26:10.277Z,13.33
2023-01-26T07:28:39.974Z,12.65
2023-01-26T07:31:07.841Z,13.68
2023-01-26T07:33:35.652Z,14.18
2023-01-26T07:36:03.943Z,13.15
2023-01-26T07:38:31.101Z,13.30
2023-01-26T07:40:58.392Z,12.05
2023-01-26T07:43:25.579Z,12.38
2023-01-26T07:45:53.601Z,11.88
2023-01-26T07:48:21.395Z,11.98
2023-01-26T07:50:48.660Z,12.67
2023-01-26T07:53:19.331Z,11.98
2023-01-26T07:55:47.092Z,12.32
2023-01-26T07:58:14.603Z,12.43
2023-01-26T08:00:41.801Z,12.45
2023-01-26T08:03:09.061Z,13.00
2023-01-26T08:05:38.491Z,11.85
2023-01-26T08:08:05.826Z,12.98
2023-01-26T08:10:32.917Z,11.95
2023-01-26T08:13:00.702Z,12.15
2023-01-26T08:15:28.408Z,11.67
2023-01-26T08:17:55.587Z,9.65
2023-01-26T08:20:23.231Z,11.30
2023-01-26T08:22:50.314Z,12.65
2023-01-26T08:25:17.454Z,11.88
2023-01-26T08:27:44.551Z,11.60
2023-01-26T08:30:12.176Z,10.73
2023-01-26T08:32:39.593Z,12.57
2023-01-26T08:35:06.880Z,11.30
2023-01-26T08:37:34.438Z,11.20
2023-01-26T08:40:01.561Z,12.13
2023-01-26T08:42:28.975Z,10.23
2023-01-26T08:44:56.055Z,9.43
2023-01-26T08:47:23.217Z,9.82
2023-01-26T08:49:50.284Z,10.05
2023-01-26T08:52:17.517Z,10.63
2023-01-26T08:54:44.648Z,10.77
2023-01-26T08:57:12.272Z,10.63
2023-01-26T08:59:39.419Z,10.20
2023-01-26T09:02:06.732Z,9.82
2023-01-26T09:04:34.053Z,9.17
2023-01-26T09:07:01.228Z,9.45
2023-01-26T09:09:28.291Z,9.50
2023-01-26T09:11:55.927Z,8.50
2023-01-26T09:14:23.791Z,8.40
2023-01-26T09:16:51.001Z,8.60
2023-01-26T09:19:18.224Z,8.68
2023-01-26T09:21:45.307Z,8.10
2023-01-26T09:24:12.523Z,7.93
2023-01-26T09:26:39.608Z,7.97
2023-01-26T09:29:06.733Z,7.93
2023-01-26T09:31:34.044Z,7.13
2023-01-26T09:34:01.272Z,8.13
2023-01-26T09:36:28.403Z,8.25
2023-01-26T09:38:55.467Z,7.72
2023-01-26T09:41:34.583Z,7.57
2023-01-26T09:44:05.525Z,6.63
2023-01-26T09:46:32.637Z,7.55
2023-01-26T09:49:07.229Z,6.07
2023-01-26T09:51:38.650Z,6.22
2023-01-26T09:54:24.590Z,5.57
2023-01-26T09:56:51.793Z,5.50
2023-01-26T09:59:39.740Z,5.32
2023-01-26T10:02:06.788Z,4.20
2023-01-26T10:04:36.750Z,3.67
2023-01-26T10:07:06.174Z,2.67
2023-01-26T10:09:35.982Z,3.58
2023-01-26T10:12:05.591Z,3.65
2023-01-26T10:14:45.315Z,2.58
2023-01-26T10:17:26.246Z,2.58
2023-01-26T10:20:00.289Z,1.98
2023-01-26T10:22:34.856Z,2.33
2023-01-26T10:25:02.028Z,2.28
2023-01-26T10:27:29.528Z,2.20
2023-01-26T10:29:56.628Z,1.95
2023-01-26T10:32:23.928Z,2.20
2023-01-26T10:34:53.185Z,1.77
2023-01-26T10:37:22.514Z,2.78
2023-01-26T10:40:01.915Z,1.65
2023-01-26T10:42:30.436Z,1.42
2023-01-26T10:45:00.153Z,1.90
2023-01-26T10:47:27.492Z,2.00
2023-01-26T10:50:14.601Z,1.48
2023-01-26T10:52:57.303Z,1.30
2023-01-26T10:55:24.467Z,2.20
2023-01-26T10:57:51.747Z,2.13
2023-01-26T11:00:25.084Z,1.80
2023-01-26T11:02:53.975Z,1.42
2023-01-26T11:05:25.074Z,1.50
2023-01-26T11:08:00.281Z,2.15
2023-01-26T11:10:35.039Z,1.63
2023-01-26T11:13:09.693Z,2.15
2023-01-26T11:15:39.471Z,1.30
2023-01-26T11:18:24.431Z,1.38
2023-01-26T11:20:54.581Z,1.38
2023-01-26T11:23:38.587Z,1.65
2023-01-26T11:26:05.666Z,2.30
2023-01-26T11:28:32.804Z,1.60
2023-01-26T11:31:00.020Z,1.10
2023-01-26T11:33:34.383Z,1.08
2023-01-26T11:36:07.164Z,1.88
2023-01-26T11:38:37.725Z,1.67
2023-01-26T11:41:11.732Z,2.30
2023-01-26T11:44:03.171Z,1.38
2023-01-26T11:46:30.267Z,1.10
2023-01-26T11:49:03.930Z,1.60
2023-01-26T11:51:41.983Z,1.27
2023-01-26T11:54:27.036Z,1.50
2023-01-26T11:56:57.187Z,1.27
2023-01-26T11:59:47.282Z,1.23
2023-01-26T12:02:27.796Z,1.80
2023-01-26T12:04:55.752Z,1.38
2023-01-26T12:07:30.122Z,1.33
2023-01-26T12:09:59.982Z,1.33
2023-01-26T12:12:45.831Z,1.10
2023-01-26T12:15:16.520Z,1.60
2023-01-26T12:17:58.861Z,1.23
2023-01-26T12:20:35.058Z,1.25
2023-01-26T12:23:07.015Z,1.27
2023-01-26T12:25:36.019Z,1.77
2023-01-26T12:28:29.683Z,1.42
2023-01-26T12:31:15.239Z,1.10
2023-01-26T12:33:42.868Z,1.45
2023-01-26T12:36:12.959Z,1.40
2023-01-26T12:38:42.840Z,1.52
2023-01-26T12:41:12.690Z,1.75
2023-01-26T12:43:51.024Z,1.57
2023-01-26T12:46:18.268Z,1.30
2023-01-26T12:48:54.405Z,1.33
2023-01-26T12:51:24.469Z,1.10
2023-01-26T12:53:54.530Z,1.25
2023-01-26T12:56:45.090Z,1.10
2023-01-26T12:59:38.596Z,1.38
2023-01-26T13:02:17.001Z,1.60
2023-01-26T13:04:46.596Z,1.30
2023-01-26T13:07:27.153Z,1.23
2023-01-26T13:10:13.423Z,1.05
2023-01-26T13:12:53.475Z,0.90
2023-01-26T13:15:22.173Z,3.78
2023-01-26T13:17:50.543Z,1.77
2023-01-26T13:20:28.736Z,3.83
2023-01-26T13:22:56.824Z,7.97
2023-01-26T13:25:33.376Z,3.58
2023-01-26T13:28:02.128Z,1.65
2023-01-26T13:30:32.299Z,1.40
2023-01-26T13:33:16.982Z,1.00
2023-01-26T13:35:45.455Z,1.73
2023-01-26T13:38:15.656Z,1.60
2023-01-26T13:40:44.660Z,1.60
2023-01-26T13:43:26.745Z,1.10
2023-01-26T13:46:14.553Z,3.20
2023-01-26T13:48:49.358Z,2.70
2023-01-26T13:51:18.729Z,1.20
2023-01-26T13:53:48.570Z,6.72
2023-01-26T13:56:24.962Z,1.33
2023-01-26T13:58:52.338Z,1.55
2023-01-26T14:01:20.064Z,2.92
2023-01-26T14:03:47.418Z,1.70
2023-01-26T14:06:17.057Z,1.17
2023-01-26T14:08:48.193Z,1.20
2023-01-26T14:11:17.019Z,1.63
2023-01-26T14:13:44.878Z,2.60
2023-01-26T14:16:21.450Z,1.50
2023-01-26T14:18:49.490Z,1.15
2023-01-26T14:21:21.477Z,1.60
2023-01-26T14:23:54.932Z,2.20
2023-01-26T14:26:31.048Z,2.13
2023-01-26T14:29:00.281Z,2.03
2023-01-26T14:31:28.417Z,1.13
2023-01-26T14:33:59.744Z,1.00
2023-01-26T14:36:29.022Z,1.20
2023-01-26T14:38:57.204Z,2.15
2023-01-26T14:41:31.728Z,1.27
2023-01-26T14:44:01.901Z,1.08
2023-01-26T14:46:48.193Z,0.90
2023-01-26T14:49:18.734Z,1.98
2023-01-26T14:51:46.147Z,6.97
2023-01-26T14:54:19.268Z,9.77
2023-01-26T14:56:47.419Z,12.93
2023-01-26T14:59:17.221Z,3.17
2023-01-26T15:01:44.373Z,4.82
2023-01-26T15:04:26.746Z,1.92
2023-01-26T15:06:54.029Z,1.20
2023-01-26T15:09:22.862Z,1.05
2023-01-26T15:12:16.652Z,1.08
2023-01-26T15:14:46.581Z,0.98
2023-01-26T15:17:28.716Z,1.17
2023-01-26T15:19:55.936Z,1.30
2023-01-26T15:22:25.154Z,1.30
2023-01-26T15:25:03.037Z,1.95
2023-01-26T15:27:34.738Z,14.50
2023-01-26T15:30:02.085Z,14.27
2023-01-26T15:32:30.418Z,2.25
2023-01-26T15:35:05.258Z,2.95
2023-01-26T15:37:34.790Z,1.60
2023-01-26T15:40:01.857Z,3.55
2023-01-26T15:42:30.862Z,2.90
2023-01-26T15:44:58.186Z,1.63
2023-01-26T15:47:25.579Z,1.90
2023-01-26T15:49:52.743Z,1.08
2023-01-26T15:52:25.492Z,1.35
2023-01-26T15:54:53.898Z,1.25
2023-01-26T15:57:21.018Z,1.30
2023-01-26T15:59:48.250Z,1.73
2023-01-26T16:02:16.410Z,1.42
2023-01-26T16:04:43.952Z,1.27
2023-01-26T16:07:15.751Z,0.73
2023-01-26T16:09:43.243Z,1.08
2023-01-26T16:12:30.449Z,2.40
2023-01-26T16:14:58.646Z,5.10
2023-01-26T18:07:03.436Z,1.23
2023-01-26T18:09:30.567Z,1.10
2023-01-26T18:11:57.677Z,1.48
2023-01-26T18:14:24.837Z,1.02
2023-01-26T18:16:51.931Z,1.23
2023-01-26T18:19:19.238Z,1.00
2023-01-26T18:21:46.392Z,1.42
2023-01-26T18:24:13.775Z,1.20
2023-01-26T18:26:40.983Z,1.55
2023-01-26T18:29:08.750Z,3.88
2023-01-26T18:31:37.356Z,2.35
2023-01-26T18:34:05.099Z,2.35
2023-01-26T18:36:32.720Z,4.60
2023-01-26T18:39:01.824Z,3.00
2023-01-26T18:41:33.048Z,10.90
2023-01-26T18:44:02.914Z,3.85
2023-01-26T18:46:33.564Z,2.28
2023-01-26T18:49:01.290Z,1.80
2023-01-26T18:51:29.538Z,1.20
2023-01-26T18:53:56.718Z,1.67
2023-01-26T18:56:24.075Z,1.20
2023-01-26T18:58:54.480Z,1.75
2023-01-26T19:01:22.129Z,1.42
2023-01-26T19:03:54.718Z,1.08
2023-01-26T19:06:22.746Z,1.60
2023-01-26T19:08:57.550Z,1.02
2023-01-26T19:11:25.835Z,1.73
2023-01-26T19:13:53.014Z,1.20
2023-01-26T19:16:20.250Z,2.45
2023-01-26T19:18:47.492Z,1.05
2023-01-26T19:21:14.743Z,1.13
2023-01-26T19:23:42.671Z,1.10
2023-01-26T19:26:11.260Z,1.55
2023-01-26T19:28:41.224Z,1.48
2023-01-26T19:31:09.044Z,1.10
2023-01-26T19:33:36.626Z,19.38
2023-01-26T19:36:05.070Z,5.88
2023-01-26T19:38:33.162Z,1.77
2023-01-26T19:41:01.083Z,1.55
2023-01-26T19:43:28.748Z,1.38
2023-01-26T19:45:57.079Z,1.13
2023-01-26T19:48:25.621Z,2.05
2023-01-26T19:51:12.344Z,1.63
2023-01-26T19:53:44.076Z,1.23
2023-01-26T19:56:13.041Z,1.80
2023-01-26T19:58:40.252Z,1.70
2023-01-26T20:01:08.590Z,1.90
2023-01-26T20:03:36.037Z,1.20
2023-01-26T20:06:04.235Z,1.15
2023-01-26T20:08:31.689Z,1.38
2023-01-26T20:11:05.618Z,1.58
2023-01-26T20:13:33.976Z,1.45
2023-01-26T20:16:01.500Z,1.57
2023-01-26T20:18:28.675Z,1.42
2023-01-26T20:20:57.393Z,1.60
2023-01-26T20:23:25.755Z,1.42
2023-01-26T20:25:52.891Z,1.55
2023-01-26T20:28:20.151Z,2.27
2023-01-26T20:30:47.329Z,1.77
2023-01-26T20:33:14.527Z,1.77
2023-01-26T20:35:43.409Z,1.90
2023-01-26T20:38:10.988Z,1.67
2023-01-26T20:40:39.792Z,1.93
2023-01-26T20:43:06.907Z,1.50
2023-01-26T20:45:34.060Z,1.25
2023-01-26T20:48:01.250Z,1.45
2023-01-26T20:50:28.353Z,1.50
2023-01-26T20:52:55.548Z,1.00
2023-01-26T20:55:22.665Z,1.90
2023-01-26T20:57:50.504Z,1.65
2023-01-26T21:00:17.819Z,1.60
2023-01-26T21:02:44.955Z,1.13
2023-01-26T21:05:12.183Z,1.20
2023-01-26T21:07:39.366Z,1.65
2023-01-26T21:10:06.861Z,1.00
2023-01-26T21:12:37.167Z,1.58
2023-01-26T21:15:05.211Z,2.00
2023-01-26T21:17:32.401Z,1.60
2023-01-26T21:19:59.607Z,1.40
2023-01-26T21:22:26.700Z,1.58
2023-01-26T21:24:53.973Z,1.58
2023-01-26T21:27:21.053Z,2.03
2023-01-26T21:29:48.169Z,1.40
2023-01-26T21:32:15.720Z,1.98
2023-01-26T21:34:44.004Z,5.68
2023-01-26T21:37:11.222Z,1.48
2023-01-26T21:39:38.415Z,1.83
2023-01-26T21:42:05.591Z,1.83
2023-01-26T21:44:53.344Z,1.52
2023-01-26T21:47:20.438Z,1.40
2023-01-26T21:49:47.749Z,1.40
2023-01-26T21:52:33.699Z,1.40
2023-01-26T21:55:00.907Z,1.23
2023-01-26T21:57:46.416Z,1.20
2023-01-26T22:00:13.839Z,1.00
2023-01-26T22:02:41.456Z,1.08
2023-01-26T22:05:08.890Z,1.60
2023-01-26T22:07:37.089Z,1.63
2023-01-26T22:10:06.025Z,1.65
2023-01-26T22:12:33.232Z,1.67
2023-01-26T22:15:00.515Z,1.98
2023-01-26T22:17:27.624Z,1.80
2023-01-26T22:19:56.266Z,1.47
2023-01-26T22:22:23.415Z,1.50
2023-01-26T22:24:51.640Z,1.67
2023-01-26T22:27:18.769Z,1.70
2023-01-26T22:29:45.859Z,1.25
2023-01-26T22:32:13.047Z,1.50
2023-01-26T22:34:40.273Z,1.50
2023-01-26T22:37:07.424Z,1.13
2023-01-26T22:39:34.537Z,1.20
2023-01-26T22:42:01.645Z,1.77
2023-01-26T22:44:28.713Z,1.20
2023-01-26T22:46:55.788Z,1.52
2023-01-26T22:49:22.876Z,1.10
2023-01-26T22:51:49.969Z,1.33
2023-01-26T22:54:17.057Z,1.90
2023-01-26T22:56:44.195Z,0.80
2023-01-26T22:59:11.282Z,1.85
2023-01-26T23:01:38.349Z,1.15
2023-01-26T23:04:05.686Z,1.40
2023-01-26T23:06:32.856Z,1.45
2023-01-26T23:09:01.175Z,1.33
2023-01-26T23:11:29.106Z,1.20
2023-01-26T23:13:57.263Z,1.00
2023-01-26T23:16:25.071Z,1.10
2023-01-26T23:18:53.293Z,1.20
2023-01-26T23:21:20.524Z,1.13
2023-01-26T23:23:47.650Z,1.00
2023-01-26T23:26:14.791Z,1.17
2023-01-26T23:28:42.878Z,1.30
2023-01-26T23:31:11.382Z,1.10
2023-01-26T23:33:38.775Z,2.10
2023-01-26T23:36:06.944Z,1.75
2023-01-26T23:38:34.015Z,1.40
2023-01-26T23:41:01.135Z,1.10
2023-01-26T23:43:28.373Z,1.00
2023-01-26T23:45:56.812Z,1.30
2023-01-26T23:48:25.574Z,1.63
2023-01-26T23:50:56.832Z,1.42
2023-01-26T23:53:24.090Z,1.20
2023-01-26T23:55:51.224Z,1.10
2023-01-26T23:58:18.561Z,1.40
